sensor_id;sensor_type;location;lat;lon;timestamp;pressure;altitude;pressure_sealevel;temperature;humidity
36354;BME280;22383;51.114;13.666;2023-05-22T00:01:44;68977.97;;;16.15;100.00
36354;BME280;22383;51.114;13.666;2023-05-22T00:04:12;68949.09;;;15.92;100.00
36354;BME280;22383;51.114;13.666;2023-05-22T00:06:47;68921.38;;;15.69;100.00
36354;BME280;22383;51.114;13.666;2023-05-22T00:09:15;68906.00;;;15.55;100.00
36354;BME280;22383;51.114;13.666;2023-05-22T00:11:42;68895.19;;;15.45;100.00
36354;BME280;22383;51.114;13.666;2023-05-22T00:14:09;68901.09;;;15.46;100.00
36354;BME280;22383;51.114;13.666;2023-05-22T00:16:39;68906.97;;;15.54;100.00
36354;BME280;22383;51.114;13.666;2023-05-22T00:19:09;68920.44;;;15.63;100.00
36354;BME280;22383;51.114;13.666;2023-05-22T00:21:39;68926.13;;;15.68;100.00
36354;BME280;22383;51.114;13.666;2023-05-22T00:24:07;68915.50;;;15.61;100.00
36354;BME280;22383;51.114;13.666;2023-05-22T00:26:34;68912.28;;;15.61;100.00
36354;BME280;22383;51.114;13.666;2023-05-22T00:29:01;68911.13;;;15.60;100.00
36354;BME280;22383;51.114;13.666;2023-05-22T00:31:29;68921.94;;;15.69;100.00
36354;BME280;22383;51.114;13.666;2023-05-22T00:33:57;68939.25;;;15.80;100.00
36354;BME280;22383;51.114;13.666;2023-05-22T00:40:51;68959.16;;;15.98;100.00
36354;BME280;22383;51.114;13.666;2023-05-22T00:43:18;68958.03;;;15.97;100.00
36354;BME280;22383;51.114;13.666;2023-05-22T00:45:46;68951.38;;;15.94;100.00
36354;BME280;22383;51.114;13.666;2023-05-22T00:48:14;68945.50;;;15.86;100.00
36354;BME280;22383;51.114;13.666;2023-05-22T00:50:42;68926.13;;;15.68;100.00
36354;BME280;22383;51.114;13.666;2023-05-22T00:53:10;68914.75;;;15.58;100.00
36354;BME280;22383;51.114;13.666;2023-05-22T00:55:38;68896.91;;;15.47;100.00
36354;BME280;22383;51.114;13.666;2023-05-22T00:58:06;68882.69;;;15.34;100.00
36354;BME280;22383;51.114;13.666;2023-05-22T01:00:36;68901.84;;;15.49;100.00
36354;BME280;22383;51.114;13.666;2023-05-22T01:03:05;68904.13;;;15.51;100.00
36354;BME280;22383;51.114;13.666;2023-05-22T01:05:36;68905.66;;;15.50;100.00
36354;BME280;22383;51.114;13.666;2023-05-22T01:08:05;68915.50;;;15.61;100.00
36354;BME280;22383;51.114;13.666;2023-05-22T01:10:34;68914.34;;;15.67;100.00
36354;BME280;22383;51.114;13.666;2023-05-22T01:13:39;68917.00;;;15.67;100.00
36354;BME280;22383;51.114;13.666;2023-05-22T01:16:14;68913.41;;;15.62;100.00
36354;BME280;22383;51.114;13.666;2023-05-22T01:19:00;68901.28;;;15.48;100.00
36354;BME280;22383;51.114;13.666;2023-05-22T01:21:56;68881.38;;;15.30;100.00
36354;BME280;22383;51.114;13.666;2023-05-22T01:24:51;68851.38;;;15.06;100.00
36354;BME280;22383;51.114;13.666;2023-05-22T01:27:30;68828.25;;;14.87;100.00
36354;BME280;22383;51.114;13.666;2023-05-22T01:33:22;68829.03;;;14.83;100.00
36354;BME280;22383;51.114;13.666;2023-05-22T01:35:56;68837.56;;;14.91;100.00
36354;BME280;22383;51.114;13.666;2023-05-22T01:38:26;68838.13;;;14.91;100.00
36354;BME280;22383;51.114;13.666;2023-05-22T01:40:53;68854.63;;;15.06;100.00
36354;BME280;22383;51.114;13.666;2023-05-22T01:43:22;68856.50;;;15.10;100.00
36354;BME280;22383;51.114;13.666;2023-05-22T01:45:49;68852.53;;;15.07;100.00
36354;BME280;22383;51.114;13.666;2023-05-22T01:48:17;68859.34;;;15.13;100.00
36354;BME280;22383;51.114;13.666;2023-05-22T01:50:47;68867.13;;;15.18;100.00
36354;BME280;22383;51.114;13.666;2023-05-22T01:53:25;68860.88;;;15.12;100.00
36354;BME280;22383;51.114;13.666;2023-05-22T01:56:05;68862.59;;;15.13;100.00
36354;BME280;22383;51.114;13.666;2023-05-22T01:58:41;68862.59;;;15.13;100.00
36354;BME280;22383;51.114;13.666;2023-05-22T02:01:13;68867.53;;;15.16;100.00
36354;BME280;22383;51.114;13.666;2023-05-22T02:03:41;68855.38;;;15.09;100.00
36354;BME280;22383;51.114;13.666;2023-05-22T02:06:10;68856.91;;;15.08;100.00
36354;BME280;22383;51.114;13.666;2023-05-22T02:08:40;68853.31;;;15.03;100.00
36354;BME280;22383;51.114;13.666;2023-05-22T02:11:12;68850.66;;;15.03;100.00
36354;BME280;22383;51.114;13.666;2023-05-22T02:13:41;68842.09;;;14.95;100.00
36354;BME280;22383;51.114;13.666;2023-05-22T02:16:09;68850.66;;;15.03;100.00
36354;BME280;22383;51.114;13.666;2023-05-22T02:18:38;68847.22;;;15.00;100.00
36354;BME280;22383;51.114;13.666;2023-05-22T02:21:08;68838.88;;;14.94;100.00
36354;BME280;22383;51.114;13.666;2023-05-22T02:23:35;68836.81;;;14.88;100.00
36354;BME280;22383;51.114;13.666;2023-05-22T02:26:04;68829.03;;;14.83;100.00
36354;BME280;22383;51.114;13.666;2023-05-22T02:28:31;68826.94;;;14.84;100.00
36354;BME280;22383;51.114;13.666;2023-05-22T02:30:59;68840.38;;;14.93;100.00
36354;BME280;22383;51.114;13.666;2023-05-22T02:33:26;68845.50;;;14.98;100.00
36354;BME280;22383;51.114;13.666;2023-05-22T02:35:55;68835.44;;;14.91;100.00
36354;BME280;22383;51.114;13.666;2023-05-22T02:38:23;68835.09;;;14.86;100.00
36354;BME280;22383;51.114;13.666;2023-05-22T02:40:51;68818.00;;;14.78;100.00
36354;BME280;22383;51.114;13.666;2023-05-22T02:43:19;68805.31;;;14.64;100.00
36354;BME280;22383;51.114;13.666;2023-05-22T02:45:47;68805.72;;;14.62;100.00
36354;BME280;22383;51.114;13.666;2023-05-22T02:48:14;68812.91;;;14.66;100.00
36354;BME280;22383;51.114;13.666;2023-05-22T02:50:42;68800.00;;;14.57;100.00
36354;BME280;22383;51.114;13.666;2023-05-22T02:53:10;68797.72;;;14.55;100.00
36354;BME280;22383;51.114;13.666;2023-05-22T02:55:37;68784.25;;;14.45;100.00
36354;BME280;22383;51.114;13.666;2023-05-22T02:58:06;68772.88;;;14.35;100.00
36354;BME280;22383;51.114;13.666;2023-05-22T03:00:37;68769.09;;;14.27;100.00
36354;BME280;22383;51.114;13.666;2023-05-22T03:03:05;68756.22;;;14.17;100.00
36354;BME280;22383;51.114;13.666;2023-05-22T03:05:33;68748.44;;;14.13;100.00
36354;BME280;22383;51.114;13.666;2023-05-22T03:08:01;68746.75;;;14.11;100.00
36354;BME280;22383;51.114;13.666;2023-05-22T03:10:29;68745.75;;;14.13;100.00
36354;BME280;22383;51.114;13.666;2023-05-22T03:12:57;68740.31;;;14.03;100.00
36354;BME280;22383;51.114;13.666;2023-05-22T03:15:24;68731.03;;;13.92;100.00
36354;BME280;22383;51.114;13.666;2023-05-22T03:17:56;68718.13;;;13.83;100.00
36354;BME280;22383;51.114;13.666;2023-05-22T03:20:24;68717.94;;;13.80;100.00
36354;BME280;22383;51.114;13.666;2023-05-22T03:22:51;68717.00;;;13.82;100.00
36354;BME280;22383;51.114;13.666;2023-05-22T03:25:18;68701.81;;;13.71;100.00
36354;BME280;22383;51.114;13.666;2023-05-22T03:27:47;68711.69;;;13.75;100.00
36354;BME280;22383;51.114;13.666;2023-05-22T03:30:14;68720.41;;;13.85;100.00
36354;BME280;22383;51.114;13.666;2023-05-22T03:32:51;68711.69;;;13.75;100.00
36354;BME280;22383;51.114;13.666;2023-05-22T03:35:19;68710.75;;;13.76;100.00
36354;BME280;22383;51.114;13.666;2023-05-22T03:37:47;68719.25;;;13.84;100.00
36354;BME280;22383;51.114;13.666;2023-05-22T03:40:14;68725.50;;;13.90;100.00
36354;BME280;22383;51.114;13.666;2023-05-22T03:42:44;68725.34;;;13.87;100.00
36354;BME280;22383;51.114;13.666;2023-05-22T03:45:11;68711.69;;;13.82;100.00
36354;BME280;22383;51.114;13.666;2023-05-22T03:47:39;68727.06;;;13.89;100.00
36354;BME280;22383;51.114;13.666;2023-05-22T03:50:07;68731.03;;;13.92;100.00
36354;BME280;22383;51.114;13.666;2023-05-22T03:52:34;68739.19;;;13.95;100.00
36354;BME280;22383;51.114;13.666;2023-05-22T03:55:04;68737.84;;;13.98;100.00
36354;BME280;22383;51.114;13.666;2023-05-22T03:57:31;68745.78;;;14.06;100.00
36354;BME280;22383;51.114;13.666;2023-05-22T03:59:59;68747.69;;;14.10;100.00
36354;BME280;22383;51.114;13.666;2023-05-22T04:02:41;68768.34;;;14.31;100.00
36354;BME280;22383;51.114;13.666;2023-05-22T04:05:11;68753.00;;;14.17;100.00
36354;BME280;22383;51.114;13.666;2023-05-22T04:07:39;68769.84;;;14.30;100.00
36354;BME280;22383;51.114;13.666;2023-05-22T04:10:07;68770.81;;;14.28;100.00
36354;BME280;22383;51.114;13.666;2023-05-22T04:12:35;68763.78;;;14.27;100.00
36354;BME280;22383;51.114;13.666;2023-05-22T04:15:03;68764.38;;;14.27;100.00
36354;BME280;22383;51.114;13.666;2023-05-22T04:17:31;68771.97;;;14.29;100.00
36354;BME280;22383;51.114;13.666;2023-05-22T04:20:00;68775.53;;;14.35;100.00
36354;BME280;22383;51.114;13.666;2023-05-22T04:22:27;68788.25;;;14.49;100.00
36354;BME280;22383;51.114;13.666;2023-05-22T04:24:56;68788.06;;;14.46;100.00
36354;BME280;22383;51.114;13.666;2023-05-22T04:27:24;68801.72;;;14.59;100.00
36354;BME280;22383;51.114;13.666;2023-05-22T04:29:52;68818.78;;;14.74;100.00
36354;BME280;22383;51.114;13.666;2023-05-22T04:32:20;68844.38;;;14.97;100.00
36354;BME280;22383;51.114;13.666;2023-05-22T04:34:51;68877.94;;;15.27;100.00
36354;BME280;22383;51.114;13.666;2023-05-22T04:37:18;68927.06;;;15.74;100.00
36354;BME280;22383;51.114;13.666;2023-05-22T04:39:47;69029.41;;;16.64;100.00
36354;BME280;22383;51.114;13.666;2023-05-22T04:42:18;69097.78;;;17.26;100.00
36354;BME280;22383;51.114;13.666;2023-05-22T04:44:46;69142.94;;;17.69;100.00
36354;BME280;22383;51.114;13.666;2023-05-22T04:47:14;69165.97;;;17.92;100.00
36354;BME280;22383;51.114;13.666;2023-05-22T04:49:41;69179.31;;;18.23;100.00
36354;BME280;22383;51.114;13.666;2023-05-22T04:52:10;69224.16;;;18.37;100.00
36354;BME280;22383;51.114;13.666;2023-05-22T04:54:38;69273.56;;;18.86;100.00
36354;BME280;22383;51.114;13.666;2023-05-22T04:57:05;69307.22;;;19.17;100.00
36354;BME280;22383;51.114;13.666;2023-05-22T04:59:35;69316.94;;;19.25;100.00
36354;BME280;22383;51.114;13.666;2023-05-22T05:02:05;69320.94;;;19.29;100.00
36354;BME280;22383;51.114;13.666;2023-05-22T05:04:35;69325.47;;;19.33;100.00
36354;BME280;22383;51.114;13.666;2023-05-22T05:07:02;69315.78;;;19.24;100.00
36354;BME280;22383;51.114;13.666;2023-05-22T05:09:31;69258.88;;;18.76;100.00
36354;BME280;22383;51.114;13.666;2023-05-22T05:12:00;69243.53;;;18.55;100.00
36354;BME280;22383;51.114;13.666;2023-05-22T05:14:28;69228.31;;;18.43;100.00
36354;BME280;22383;51.114;13.666;2023-05-22T05:16:55;69143.69;;;17.72;100.00
36354;BME280;22383;51.114;13.666;2023-05-22T05:19:24;69127.00;;;17.54;100.00
36354;BME280;22383;51.114;13.666;2023-05-22T05:21:52;69123.59;;;17.51;100.00
36354;BME280;22383;51.114;13.666;2023-05-22T05:24:20;69108.59;;;17.35;100.00
36354;BME280;22383;51.114;13.666;2023-05-22T05:26:49;69064.88;;;16.98;100.00
36354;BME280;22383;51.114;13.666;2023-05-22T05:29:18;69076.69;;;17.07;100.00
36354;BME280;22383;51.114;13.666;2023-05-22T05:31:52;69075.88;;;17.11;100.00
36354;BME280;22383;51.114;13.666;2023-05-22T05:34:30;69082.78;;;17.10;100.00
36354;BME280;22383;51.114;13.666;2023-05-22T05:37:03;69116.00;;;17.42;100.00
36354;BME280;22383;51.114;13.666;2023-05-22T05:39:32;69182.13;;;18.02;100.00
36354;BME280;22383;51.114;13.666;2023-05-22T05:42:02;69241.44;;;18.55;100.00
36354;BME280;22383;51.114;13.666;2023-05-22T05:44:29;69287.84;;;18.99;100.00
36354;BME280;22383;51.114;13.666;2023-05-22T05:46:56;69330.22;;;19.40;100.00
36354;BME280;22383;51.114;13.666;2023-05-22T05:49:25;69385.84;;;19.85;100.00
36354;BME280;22383;51.114;13.666;2023-05-22T05:51:53;69435.50;;;20.30;100.00
36354;BME280;22383;51.114;13.666;2023-05-22T05:54:21;69492.22;;;20.83;100.00
36354;BME280;22383;51.114;13.666;2023-05-22T05:56:52;69441.38;;;20.37;100.00
36354;BME280;22383;51.114;13.666;2023-05-22T05:59:19;69436.81;;;20.33;100.00
36354;BME280;22383;51.114;13.666;2023-05-22T06:02:18;69493.38;;;20.84;100.00
36354;BME280;22383;51.114;13.666;2023-05-22T06:04:46;69513.94;;;21.03;100.00
36354;BME280;22383;51.114;13.666;2023-05-22T06:07:16;69498.50;;;20.89;100.00
36354;BME280;22383;51.114;13.666;2023-05-22T06:09:46;69522.09;;;21.12;100.00
36354;BME280;22383;51.114;13.666;2023-05-22T06:12:31;69538.91;;;21.23;100.00
36354;BME280;22383;51.114;13.666;2023-05-22T06:14:59;69611.34;;;21.85;100.00
36354;BME280;22383;51.114;13.666;2023-05-22T06:17:26;69638.94;;;22.13;100.00
36354;BME280;22383;51.114;13.666;2023-05-22T06:19:54;69665.44;;;22.39;100.00
36354;BME280;22383;51.114;13.666;2023-05-22T06:22:24;69658.41;;;22.30;100.00
36354;BME280;22383;51.114;13.666;2023-05-22T06:24:52;69656.28;;;22.31;100.00
36354;BME280;22383;51.114;13.666;2023-05-22T06:27:25;69613.94;;;21.93;100.00
36354;BME280;22383;51.114;13.666;2023-05-22T06:29:55;69608.81;;;21.88;100.00
36354;BME280;22383;51.114;13.666;2023-05-22T06:32:27;69654.56;;;22.29;100.00
36354;BME280;22383;51.114;13.666;2023-05-22T06:34:54;69695.16;;;22.65;100.00
36354;BME280;22383;51.114;13.666;2023-05-22T06:37:22;69707.75;;;22.77;100.00
36354;BME280;22383;51.114;13.666;2023-05-22T06:39:50;69738.06;;;23.04;100.00
36354;BME280;22383;51.114;13.666;2023-05-22T06:42:37;69811.47;;;23.72;100.00
36354;BME280;22383;51.114;13.666;2023-05-22T06:45:23;69834.22;;;23.90;100.00
36354;BME280;22383;51.114;13.666;2023-05-22T06:48:10;69803.31;;;23.63;100.00
36354;BME280;22383;51.114;13.666;2023-05-22T06:50:49;69769.25;;;23.54;100.00
36354;BME280;22383;51.114;13.666;2023-05-22T06:53:17;69779.84;;;23.41;100.00
36354;BME280;22383;51.114;13.666;2023-05-22T06:55:44;69833.06;;;23.89;100.00
36354;BME280;22383;51.114;13.666;2023-05-22T06:58:20;69849.94;;;24.26;100.00
36354;BME280;22383;51.114;13.666;2023-05-22T07:00:48;69889.19;;;24.40;99.40
36354;BME280;22383;51.114;13.666;2023-05-22T07:03:21;69900.63;;;24.50;100.00
36354;BME280;22383;51.114;13.666;2023-05-22T07:06:10;69881.91;;;24.35;100.00
36354;BME280;22383;51.114;13.666;2023-05-22T07:08:38;69891.31;;;24.39;96.02
36354;BME280;22383;51.114;13.666;2023-05-22T07:11:05;69860.00;;;24.13;97.65
36354;BME280;22383;51.114;13.666;2023-05-22T07:13:34;69877.16;;;24.29;94.35
36354;BME280;22383;51.114;13.666;2023-05-22T07:16:02;69913.97;;;24.64;100.00
36354;BME280;22383;51.114;13.666;2023-05-22T07:18:30;69925.44;;;24.75;94.85
36354;BME280;22383;51.114;13.666;2023-05-22T07:20:57;69922.59;;;24.72;93.55
36354;BME280;22383;51.114;13.666;2023-05-22T07:23:24;69934.72;;;25.02;92.78
36354;BME280;22383;51.114;13.666;2023-05-22T07:25:52;69902.94;;;24.52;89.89
36354;BME280;22383;51.114;13.666;2023-05-22T07:28:23;69852.38;;;24.04;93.57
36354;BME280;22383;51.114;13.666;2023-05-22T07:31:01;69823.53;;;23.83;95.39
36354;BME280;22383;51.114;13.666;2023-05-22T07:33:29;69849.69;;;24.04;98.53
36354;BME280;22383;51.114;13.666;2023-05-22T07:35:56;69858.25;;;24.12;92.61
36354;BME280;22383;51.114;13.666;2023-05-22T07:38:24;69868.16;;;24.23;94.86
36354;BME280;22383;51.114;13.666;2023-05-22T07:40:58;69919.56;;;24.67;91.27
36354;BME280;22383;51.114;13.666;2023-05-22T07:43:26;69951.47;;;24.93;88.99
36354;BME280;22383;51.114;13.666;2023-05-22T07:45:55;69928.72;;;24.75;86.05
36354;BME280;22383;51.114;13.666;2023-05-22T07:48:25;69935.16;;;24.83;90.45
36354;BME280;22383;51.114;13.666;2023-05-22T07:50:53;69914.41;;;24.62;87.48
36354;BME280;22383;51.114;13.666;2023-05-22T07:53:20;69940.16;;;24.85;86.18
36354;BME280;22383;51.114;13.666;2023-05-22T07:55:50;69959.22;;;25.05;82.27
36354;BME280;22383;51.114;13.666;2023-05-22T07:58:18;69966.34;;;25.06;85.36
36354;BME280;22383;51.114;13.666;2023-05-22T08:00:46;69930.69;;;24.99;85.19
36354;BME280;22383;51.114;13.666;2023-05-22T08:03:13;70006.06;;;25.44;81.51
36354;BME280;22383;51.114;13.666;2023-05-22T08:05:41;70058.38;;;25.94;81.30
36354;BME280;22383;51.114;13.666;2023-05-22T08:08:15;70001.75;;;25.36;83.04
36354;BME280;22383;51.114;13.666;2023-05-22T08:13:41;70109.81;;;26.37;80.52
36354;BME280;22383;51.114;13.666;2023-05-22T08:16:09;70127.72;;;26.56;77.19
36354;BME280;22383;51.114;13.666;2023-05-22T08:18:37;70136.34;;;26.64;79.66
36354;BME280;22383;51.114;13.666;2023-05-22T08:21:04;70147.88;;;26.93;80.58
36354;BME280;22383;51.114;13.666;2023-05-22T08:23:32;70149.03;;;26.94;72.84
36354;BME280;22383;51.114;13.666;2023-05-22T08:26:02;70175.19;;;26.96;71.22
36354;BME280;22383;51.114;13.666;2023-05-22T08:28:30;70148.81;;;26.72;74.98
36354;BME280;22383;51.114;13.666;2023-05-22T08:30:57;70041.44;;;25.74;74.56
36354;BME280;22383;51.114;13.666;2023-05-22T08:33:24;69962.22;;;25.27;72.47
36354;BME280;22383;51.114;13.666;2023-05-22T08:35:52;69974.13;;;25.18;75.64
36354;BME280;22383;51.114;13.666;2023-05-22T08:38:20;69979.53;;;25.18;77.67
36354;BME280;22383;51.114;13.666;2023-05-22T08:40:48;69944.91;;;24.92;79.74
36354;BME280;22383;51.114;13.666;2023-05-22T08:43:18;69935.59;;;24.81;80.53
36354;BME280;22383;51.114;13.666;2023-05-22T08:45:55;69969.78;;;25.09;77.11
36354;BME280;22383;51.114;13.666;2023-05-22T08:48:29;69984.88;;;25.25;76.09
36354;BME280;22383;51.114;13.666;2023-05-22T08:51:04;69987.16;;;25.27;73.97
36354;BME280;22383;51.114;13.666;2023-05-22T08:53:33;69975.53;;;25.15;75.21
36354;BME280;22383;51.114;13.666;2023-05-22T08:56:04;70037.56;;;25.73;77.41
36354;BME280;22383;51.114;13.666;2023-05-22T08:58:36;70062.97;;;25.98;75.07
36354;BME280;22383;51.114;13.666;2023-05-22T09:01:04;70110.38;;;26.38;73.97
36354;BME280;22383;51.114;13.666;2023-05-22T09:03:33;70144.81;;;26.69;69.75
36354;BME280;22383;51.114;13.666;2023-05-22T09:06:02;70151.69;;;26.75;69.62
36354;BME280;22383;51.114;13.666;2023-05-22T09:08:29;70158.00;;;26.81;69.11
36354;BME280;22383;51.114;13.666;2023-05-22T09:10:56;70159.56;;;26.79;71.30
36354;BME280;22383;51.114;13.666;2023-05-22T09:13:27;70164.31;;;26.86;69.25
36354;BME280;22383;51.114;13.666;2023-05-22T09:16:09;70153.97;;;26.77;72.73
36354;BME280;22383;51.114;13.666;2023-05-22T09:18:37;70177.63;;;27.01;74.84
36354;BME280;22383;51.114;13.666;2023-05-22T09:21:13;70137.34;;;26.62;78.48
36354;BME280;22383;51.114;13.666;2023-05-22T09:24:41;70105.38;;;26.36;73.20
36354;BME280;22383;51.114;13.666;2023-05-22T09:27:10;70150.53;;;26.74;74.74
36354;BME280;22383;51.114;13.666;2023-05-22T09:29:47;70161.28;;;26.81;77.14
36354;BME280;22383;51.114;13.666;2023-05-22T09:32:16;70143.09;;;26.67;77.72
36354;BME280;22383;51.114;13.666;2023-05-22T09:34:45;70122.41;;;26.49;72.37
36354;BME280;22383;51.114;13.666;2023-05-22T09:37:13;70127.59;;;26.53;75.03
36354;BME280;22383;51.114;13.666;2023-05-22T09:39:46;70142.09;;;26.69;78.53
36354;BME280;22383;51.114;13.666;2023-05-22T09:42:34;70172.31;;;26.93;76.88
36354;BME280;22383;51.114;13.666;2023-05-22T09:45:05;70128.75;;;26.54;78.50
36354;BME280;22383;51.114;13.666;2023-05-22T09:47:33;70037.72;;;25.75;78.03
36354;BME280;22383;51.114;13.666;2023-05-22T09:50:04;69973.94;;;25.16;76.40
36354;BME280;22383;51.114;13.666;2023-05-22T09:52:38;69943.19;;;24.90;80.95
36354;BME280;22383;51.114;13.666;2023-05-22T09:55:09;69893.03;;;24.41;83.17
36354;BME280;22383;51.114;13.666;2023-05-22T09:57:46;69873.16;;;24.25;85.32
36354;BME280;22383;51.114;13.666;2023-05-22T10:00:24;69847.97;;;24.03;82.84
36354;BME280;22383;51.114;13.666;2023-05-22T10:03:01;69846.09;;;23.99;84.72
36354;BME280;22383;51.114;13.666;2023-05-22T10:05:35;69854.44;;;24.11;88.27
36354;BME280;22383;51.114;13.666;2023-05-22T10:08:27;69833.66;;;23.90;85.59
36354;BME280;22383;51.114;13.666;2023-05-22T10:11:05;69806.19;;;23.65;84.72
36354;BME280;22383;51.114;13.666;2023-05-22T10:13:36;69773.13;;;23.38;84.37
36354;BME280;22383;51.114;13.666;2023-05-22T10:16:03;69792.59;;;23.55;84.20
36354;BME280;22383;51.114;13.666;2023-05-22T10:18:34;69795.28;;;23.55;82.56
36354;BME280;22383;51.114;13.666;2023-05-22T10:21:04;69790.13;;;23.51;87.47
36354;BME280;22383;51.114;13.666;2023-05-22T10:23:33;69774.28;;;23.39;85.46
36354;BME280;22383;51.114;13.666;2023-05-22T10:26:04;69781.56;;;23.43;84.38
36354;BME280;22383;51.114;13.666;2023-05-22T10:28:49;69809.59;;;23.68;84.12
36354;BME280;22383;51.114;13.666;2023-05-22T10:31:43;69825.47;;;23.80;82.38
36354;BME280;22383;51.114;13.666;2023-05-22T10:34:39;69914.81;;;24.60;87.31
36354;BME280;22383;51.114;13.666;2023-05-22T10:37:37;69989.59;;;25.32;85.45
36354;BME280;22383;51.114;13.666;2023-05-22T10:40:13;70035.50;;;25.93;81.05
36354;BME280;22383;51.114;13.666;2023-05-22T10:42:47;70090.88;;;26.20;76.73
36354;BME280;22383;51.114;13.666;2023-05-22T10:45:18;70092.84;;;26.44;74.53
36354;BME280;22383;51.114;13.666;2023-05-22T10:48:10;70113.50;;;26.63;72.61
36354;BME280;22383;51.114;13.666;2023-05-22T10:50:49;70131.75;;;26.59;73.09
36354;BME280;22383;51.114;13.666;2023-05-22T10:53:24;70142.22;;;26.62;71.26
36354;BME280;22383;51.114;13.666;2023-05-22T10:55:56;70146.53;;;26.70;72.56
36354;BME280;22383;51.114;13.666;2023-05-22T10:58:30;70133.31;;;26.58;64.95
36354;BME280;22383;51.114;13.666;2023-05-22T11:01:15;70163.56;;;26.83;70.64
36354;BME280;22383;51.114;13.666;2023-05-22T11:04:08;70157.41;;;26.80;64.07
36354;BME280;22383;51.114;13.666;2023-05-22T11:07:03;70144.06;;;26.66;68.13
36354;BME280;22383;51.114;13.666;2023-05-22T11:09:39;70119.78;;;26.68;66.39
36354;BME280;22383;51.114;13.666;2023-05-22T11:12:24;70104.31;;;26.54;66.02
36354;BME280;22383;51.114;13.666;2023-05-22T11:15:06;70104.66;;;26.33;62.52
36354;BME280;22383;51.114;13.666;2023-05-22T11:17:44;70071.41;;;26.03;70.01
36354;BME280;22383;51.114;13.666;2023-05-22T11:20:23;70025.38;;;25.59;69.05
36354;BME280;22383;51.114;13.666;2023-05-22T11:23:05;70000.91;;;25.40;71.68
36354;BME280;22383;51.114;13.666;2023-05-22T11:25:39;69987.00;;;25.25;68.08
36354;BME280;22383;51.114;13.666;2023-05-22T11:28:07;69984.44;;;25.27;74.46
36354;BME280;22383;51.114;13.666;2023-05-22T11:30:46;69990.19;;;25.33;71.19
36354;BME280;22383;51.114;13.666;2023-05-22T11:33:14;69984.31;;;25.25;70.80
36354;BME280;22383;51.114;13.666;2023-05-22T11:35:46;69994.59;;;25.34;70.47
36354;BME280;22383;51.114;13.666;2023-05-22T11:38:20;70002.47;;;25.39;69.28
36354;BME280;22383;51.114;13.666;2023-05-22T11:40:50;70027.41;;;25.66;75.42
36354;BME280;22383;51.114;13.666;2023-05-22T11:43:29;70032.56;;;25.71;71.09
36354;BME280;22383;51.114;13.666;2023-05-22T11:46:19;70043.31;;;25.78;70.93
36354;BME280;22383;51.114;13.666;2023-05-22T11:48:51;70059.91;;;25.93;71.78
36354;BME280;22383;51.114;13.666;2023-05-22T11:51:23;70074.13;;;26.03;66.43
36354;BME280;22383;51.114;13.666;2023-05-22T11:53:50;70062.81;;;25.95;66.04
36354;BME280;22383;51.114;13.666;2023-05-22T11:56:24;70066.25;;;25.98;68.03
36354;BME280;22383;51.114;13.666;2023-05-22T11:58:52;70063.38;;;25.96;64.99
36354;BME280;22383;51.114;13.666;2023-05-22T12:01:22;70047.00;;;26.03;65.13
36354;BME280;22383;51.114;13.666;2023-05-22T12:03:54;70067.97;;;26.00;65.27
36354;BME280;22383;51.114;13.666;2023-05-22T12:06:22;70033.56;;;25.69;65.26
36354;BME280;22383;51.114;13.666;2023-05-22T12:08:53;70046.75;;;25.81;66.70
36354;BME280;22383;51.114;13.666;2023-05-22T12:11:26;70060.66;;;25.96;66.18
36354;BME280;22383;51.114;13.666;2023-05-22T12:13:59;70051.91;;;25.85;66.21
36354;BME280;22383;51.114;13.666;2023-05-22T12:16:33;70057.06;;;25.90;66.89
36354;BME280;22383;51.114;13.666;2023-05-22T12:19:05;70054.03;;;25.85;68.00
36354;BME280;22383;51.114;13.666;2023-05-22T12:21:49;70044.72;;;26.01;67.39
36354;BME280;22383;51.114;13.666;2023-05-22T12:24:16;70072.69;;;26.07;68.19
36354;BME280;22383;51.114;13.666;2023-05-22T12:26:51;70108.09;;;26.36;67.76
36354;BME280;22383;51.114;13.666;2023-05-22T12:29:21;70129.44;;;26.57;71.41
36354;BME280;22383;51.114;13.666;2023-05-22T12:31:50;70096.28;;;26.47;66.44
36354;BME280;22383;51.114;13.666;2023-05-22T12:34:25;70139.06;;;26.64;68.61
36354;BME280;22383;51.114;13.666;2023-05-22T12:36:53;70120.28;;;26.49;66.98
36354;BME280;22383;51.114;13.666;2023-05-22T12:39:29;70107.66;;;26.38;69.14
36354;BME280;22383;51.114;13.666;2023-05-22T12:41:57;70087.44;;;26.17;64.83
36354;BME280;22383;51.114;13.666;2023-05-22T12:44:25;70059.63;;;26.14;63.16
36354;BME280;22383;51.114;13.666;2023-05-22T12:46:53;70081.16;;;26.12;65.61
36354;BME280;22383;51.114;13.666;2023-05-22T12:49:24;70080.31;;;26.16;64.13
36354;BME280;22383;51.114;13.666;2023-05-22T12:51:52;70076.22;;;26.29;63.69
36354;BME280;22383;51.114;13.666;2023-05-22T12:54:19;70101.38;;;26.32;67.67
36354;BME280;22383;51.114;13.666;2023-05-22T12:56:51;70113.25;;;26.40;66.39
36354;BME280;22383;51.114;13.666;2023-05-22T12:59:18;70127.84;;;26.49;68.78
36354;BME280;22383;51.114;13.666;2023-05-22T13:01:48;70149.38;;;26.73;67.30
36354;BME280;22383;51.114;13.666;2023-05-22T13:04:23;70156.28;;;26.79;67.25
36354;BME280;22383;51.114;13.666;2023-05-22T13:06:50;70170.75;;;26.94;70.81
36354;BME280;22383;51.114;13.666;2023-05-22T13:09:17;70139.28;;;26.86;64.70
36354;BME280;22383;51.114;13.666;2023-05-22T13:11:48;70180.34;;;27.01;73.76
36354;BME280;22383;51.114;13.666;2023-05-22T13:14:18;70191.47;;;27.32;71.61
36354;BME280;22383;51.114;13.666;2023-05-22T13:16:48;70158.16;;;26.83;63.74
36354;BME280;22383;51.114;13.666;2023-05-22T13:19:16;70171.75;;;26.93;65.54